createdAt,value
2019-04-05T00:01:45.098Z,14.87
2019-04-05T00:04:13.600Z,14.43
2019-04-05T00:06:42.109Z,13.20
2019-04-05T00:09:10.541Z,14.50
2019-04-05T00:11:39.110Z,13.83
2019-04-05T00:14:07.551Z,14.37
2019-04-05T00:16:36.090Z,14.40
2019-04-05T00:19:04.626Z,14.20
2019-04-05T00:21:33.121Z,13.70
2019-04-05T00:24:01.563Z,14.50
2019-04-05T00:26:30.058Z,15.60
2019-04-05T00:28:58.492Z,14.83
2019-04-05T00:31:27.059Z,13.77
2019-04-05T00:33:55.493Z,14.70
2019-04-05T00:36:23.971Z,15.20
2019-04-05T00:38:52.412Z,13.73
2019-04-05T00:41:20.899Z,14.53
2019-04-05T00:43:49.330Z,14.93
2019-04-05T00:46:17.815Z,15.53
2019-04-05T00:48:46.250Z,15.23
2019-04-05T00:51:14.781Z,15.00
2019-04-05T00:53:43.588Z,14.80
2019-04-05T00:56:12.648Z,14.70
2019-04-05T00:58:41.180Z,14.50
2019-04-05T01:01:09.674Z,14.77
2019-04-05T01:03:38.111Z,15.63
2019-04-05T01:06:06.694Z,14.67
2019-04-05T01:08:35.209Z,15.30
2019-04-05T01:11:03.782Z,14.13
2019-04-05T01:13:32.242Z,15.70
2019-04-05T01:16:00.738Z,14.73
2019-04-05T01:18:29.172Z,15.10
2019-04-05T01:21:00.764Z,14.97
2019-04-05T01:23:29.567Z,14.93
2019-04-05T01:26:00.354Z,15.77
2019-04-05T01:28:28.952Z,15.83
2019-04-05T01:30:57.426Z,16.07
2019-04-05T01:33:25.948Z,14.90
2019-04-05T01:35:54.443Z,15.00
2019-04-05T01:38:22.954Z,15.10
2019-04-05T01:40:51.569Z,14.40
2019-04-05T01:43:20.012Z,14.93
2019-04-05T01:45:53.834Z,15.13
2019-04-05T01:48:18.717Z,16.20
2019-04-05T01:50:47.206Z,16.73
2019-04-05T01:53:15.660Z,14.57
2019-04-05T01:55:44.220Z,16.00
2019-04-05T01:58:12.689Z,14.47
2019-04-05T02:00:41.161Z,15.57
2019-04-05T02:03:09.623Z,16.47
2019-04-05T02:05:38.129Z,15.73
2019-04-05T02:08:06.795Z,14.33
2019-04-05T02:10:35.424Z,14.53
2019-04-05T02:13:03.906Z,14.70
2019-04-05T02:15:33.727Z,14.37
2019-04-05T02:18:02.192Z,15.60
2019-04-05T02:20:30.706Z,15.10
2019-04-05T02:22:59.228Z,14.23
2019-04-05T02:25:27.738Z,14.97
2019-04-05T02:27:56.517Z,15.63
2019-04-05T02:30:25.122Z,14.83
2019-04-05T02:32:53.729Z,14.33
2019-04-05T02:35:22.334Z,14.60
2019-04-05T02:37:50.922Z,15.90
2019-04-05T02:40:19.425Z,15.30
2019-04-05T02:42:50.104Z,16.77
2019-04-05T02:45:19.489Z,14.17
2019-04-05T02:47:53.684Z,16.10
2019-04-05T02:50:24.001Z,16.00
2019-04-05T02:52:55.086Z,16.63
2019-04-05T02:55:24.539Z,16.67
2019-04-05T02:57:53.321Z,15.20
2019-04-05T03:00:21.866Z,16.17
2019-04-05T03:02:51.705Z,16.93
2019-04-05T03:05:20.362Z,15.60
2019-04-05T03:07:48.840Z,15.67
2019-04-05T03:10:54.897Z,17.17
2019-04-05T03:13:24.775Z,15.57
2019-04-05T03:15:55.113Z,15.70
2019-04-05T03:18:25.289Z,14.27
2019-04-05T03:20:55.283Z,15.87
2019-04-05T03:23:23.985Z,16.70
2019-04-05T03:25:52.504Z,16.87
2019-04-05T03:28:21.800Z,16.90
2019-04-05T03:30:50.310Z,17.60
2019-04-05T03:33:18.840Z,17.43
2019-04-05T03:35:47.344Z,17.63
2019-04-05T03:38:15.898Z,16.70
2019-04-05T03:40:44.396Z,17.13
2019-04-05T03:43:13.058Z,19.63
2019-04-05T03:45:41.668Z,17.63
2019-04-05T03:48:10.230Z,16.40
2019-04-05T03:50:38.755Z,17.13
2019-04-05T03:53:07.610Z,17.03
2019-04-05T03:55:36.698Z,17.57
2019-04-05T03:58:05.299Z,16.97
2019-04-05T04:00:33.763Z,18.23
2019-04-05T04:03:02.460Z,17.40
2019-04-05T04:05:30.933Z,18.07
2019-04-05T04:07:59.423Z,18.73
2019-04-05T04:10:28.455Z,17.93
2019-04-05T04:12:56.995Z,18.47
2019-04-05T04:15:25.811Z,16.63
2019-04-05T04:17:54.983Z,18.30
2019-04-05T04:20:39.144Z,18.77
2019-04-05T04:23:08.372Z,17.83
2019-04-05T04:25:38.203Z,18.30
2019-04-05T04:28:07.191Z,17.53
2019-04-05T04:30:36.429Z,16.87
2019-04-05T04:33:05.761Z,19.73
2019-04-05T04:35:34.510Z,18.57
2019-04-05T04:38:03.017Z,20.10
2019-04-05T04:40:31.746Z,17.60
2019-04-05T04:43:01.191Z,18.93
2019-04-05T04:45:30.166Z,18.70
2019-04-05T04:47:58.681Z,20.53
2019-04-05T04:50:27.417Z,17.63
2019-04-05T04:52:56.166Z,19.70
2019-04-05T04:55:24.607Z,19.80
2019-04-05T04:57:53.303Z,21.20
2019-04-05T05:00:22.230Z,18.27
2019-04-05T05:02:50.987Z,20.90
2019-04-05T05:05:19.700Z,18.70
2019-04-05T05:07:48.268Z,20.17
2019-04-05T05:10:16.840Z,19.87
2019-04-05T05:12:45.340Z,18.47
2019-04-05T05:15:14.216Z,19.60
2019-04-05T05:17:42.974Z,18.20
2019-04-05T05:20:11.584Z,20.17
2019-04-05T05:22:40.240Z,19.97
2019-04-05T05:25:08.799Z,18.83
2019-04-05T05:27:37.345Z,18.57
2019-04-05T05:30:12.476Z,21.73
2019-04-05T05:32:41.006Z,18.47
2019-04-05T05:35:10.076Z,17.87
2019-04-05T05:37:38.624Z,18.77
2019-04-05T05:40:07.902Z,19.40
2019-04-05T05:42:36.457Z,17.03
2019-04-05T05:45:09.591Z,20.50
2019-04-05T05:47:50.668Z,19.77
2019-04-05T05:50:08.700Z,20.93
2019-04-05T05:52:37.446Z,22.23
2019-04-05T05:55:06.526Z,23.87
2019-04-05T05:57:35.030Z,24.90
2019-04-05T06:00:05.067Z,26.50
2019-04-05T06:02:33.565Z,29.53
2019-04-05T06:05:02.011Z,31.37
2019-04-05T06:07:30.504Z,35.50
2019-04-05T06:09:58.964Z,38.60
2019-04-05T06:12:27.455Z,41.97
2019-04-05T06:14:56.183Z,44.17
2019-04-05T06:17:24.692Z,46.83
2019-04-05T06:19:53.133Z,47.03
2019-04-05T06:22:21.618Z,49.37
2019-04-05T06:24:50.115Z,49.13
2019-04-05T06:27:18.596Z,51.97
2019-04-05T06:29:47.036Z,50.10
2019-04-05T06:32:15.549Z,54.13
2019-04-05T06:34:44.061Z,52.63
2019-04-05T06:37:12.539Z,51.37
2019-04-05T06:39:40.994Z,49.90
2019-04-05T06:42:09.480Z,51.27
2019-04-05T06:44:37.933Z,50.80
2019-04-05T06:47:06.405Z,51.33
2019-04-05T06:49:34.856Z,53.43
2019-04-05T06:52:03.311Z,50.70
2019-04-05T06:54:31.796Z,52.40
2019-04-05T06:57:00.270Z,52.23
2019-04-05T06:59:28.828Z,52.90
2019-04-05T07:01:57.273Z,53.90
2019-04-05T07:04:25.754Z,54.80
2019-04-05T07:06:54.205Z,54.20
2019-04-05T07:09:22.703Z,50.90
2019-04-05T07:11:51.173Z,57.90
2019-04-05T07:14:19.714Z,53.07
2019-04-05T07:16:48.155Z,54.13
2019-04-05T07:19:16.642Z,54.67
2019-04-05T07:21:45.109Z,56.57
2019-04-05T07:24:13.614Z,54.60
2019-04-05T07:26:42.078Z,54.93
2019-04-05T07:29:10.596Z,57.77
2019-04-05T07:31:39.046Z,60.10
2019-04-05T07:34:07.541Z,57.00
2019-04-05T07:36:36.017Z,53.30
2019-04-05T07:39:06.224Z,55.50
2019-04-05T07:41:34.662Z,57.97
2019-04-05T07:44:03.196Z,58.87
2019-04-05T07:46:31.662Z,57.80
2019-04-05T07:49:00.170Z,53.77
2019-04-05T07:51:28.627Z,54.13
2019-04-05T07:53:57.287Z,51.90
2019-04-05T07:56:25.909Z,52.63
2019-04-05T07:58:54.397Z,54.73
2019-04-05T08:01:22.857Z,56.77
2019-04-05T08:03:51.339Z,57.97
2019-04-05T08:06:19.810Z,54.13
2019-04-05T08:08:51.469Z,52.83
2019-04-05T08:11:19.913Z,54.60
2019-04-05T08:13:48.497Z,54.13
2019-04-05T08:16:17.013Z,50.90
2019-04-05T08:18:57.226Z,53.90
2019-04-05T08:21:15.706Z,54.30
2019-04-05T08:23:44.272Z,51.17
2019-04-05T08:26:12.773Z,51.50
2019-04-05T08:28:41.326Z,54.23
2019-04-05T08:31:11.049Z,52.73
2019-04-05T08:33:39.988Z,52.10
2019-04-05T08:36:08.435Z,54.50
2019-04-05T08:38:39.637Z,55.30
2019-04-05T08:41:07.238Z,56.80
2019-04-05T08:43:36.033Z,55.33
2019-04-05T08:46:04.565Z,56.03
2019-04-05T08:48:33.036Z,55.60
2019-04-05T08:51:01.479Z,53.40
2019-04-05T08:53:29.985Z,53.20
2019-04-05T08:55:58.442Z,55.67
2019-04-05T08:58:33.252Z,51.97
2019-04-05T09:00:57.092Z,50.00
2019-04-05T09:03:25.589Z,51.23
2019-04-05T09:05:54.026Z,49.83
2019-04-05T09:08:22.515Z,46.33
2019-04-05T09:10:50.975Z,45.33
2019-04-05T09:13:19.483Z,45.63
2019-04-05T09:15:47.933Z,50.50
2019-04-05T09:18:16.423Z,46.17
2019-04-05T09:20:44.868Z,47.17
2019-04-05T09:23:13.361Z,49.43
2019-04-05T09:25:42.196Z,47.10
2019-04-05T09:28:10.672Z,46.30
2019-04-05T09:30:39.215Z,51.20
2019-04-05T09:33:07.697Z,49.87
2019-04-05T09:35:36.170Z,50.53
2019-04-05T09:38:04.758Z,48.73
2019-04-05T09:40:33.239Z,48.47
2019-04-05T09:43:01.788Z,49.83
2019-04-05T09:45:30.268Z,49.73
2019-04-05T09:47:58.765Z,51.37
2019-04-05T09:50:27.240Z,52.47
2019-04-05T09:52:55.813Z,52.90
2019-04-05T09:55:24.297Z,50.20
2019-04-05T09:57:52.859Z,52.10
2019-04-05T10:00:23.031Z,55.20
2019-04-05T10:02:51.513Z,53.90
2019-04-05T10:05:20.073Z,55.73
2019-04-05T10:07:54.586Z,54.37
2019-04-05T10:10:18.825Z,56.67
2019-04-05T10:12:47.329Z,57.73
2019-04-05T10:15:15.968Z,53.07
2019-04-05T10:17:44.475Z,54.43
2019-04-05T10:20:13.278Z,53.53
2019-04-05T10:22:41.745Z,57.43
2019-04-05T10:25:10.205Z,53.90
2019-04-05T10:27:38.679Z,54.73
2019-04-05T10:30:11.797Z,54.67
2019-04-05T10:32:40.268Z,53.03
2019-04-05T10:35:08.997Z,53.70
2019-04-05T10:37:37.494Z,53.27
2019-04-05T10:40:07.064Z,52.30
2019-04-05T10:42:36.566Z,48.60
2019-04-05T10:45:08.356Z,45.53
2019-04-05T10:47:36.822Z,45.10
2019-04-05T10:50:07.605Z,43.87
2019-04-05T10:52:36.127Z,41.67
2019-04-05T10:55:05.449Z,42.43
2019-04-05T10:57:33.957Z,38.57
2019-04-05T11:00:02.445Z,40.20
2019-04-05T11:02:30.960Z,38.10
2019-04-05T11:04:59.435Z,36.80
2019-04-05T11:07:27.948Z,39.67
2019-04-05T11:09:56.488Z,37.63
2019-04-05T11:12:24.937Z,35.40
2019-04-05T11:14:53.439Z,37.60
2019-04-05T11:17:21.877Z,38.17
2019-04-05T11:19:50.363Z,38.90
2019-04-05T11:22:20.921Z,38.27
2019-04-05T11:24:49.117Z,37.93
2019-04-05T11:27:17.710Z,39.40
2019-04-05T11:29:46.200Z,39.97
2019-04-05T11:32:14.723Z,36.77
2019-04-05T11:34:43.375Z,38.10
2019-04-05T11:37:11.906Z,40.60
2019-04-05T11:39:40.442Z,39.17
2019-04-05T11:42:08.928Z,38.80
2019-04-05T11:44:38.488Z,39.93
2019-04-05T11:47:07.034Z,40.30
2019-04-05T11:49:35.535Z,40.63
2019-04-05T11:52:04.153Z,38.87
2019-04-05T11:54:32.639Z,39.33
2019-04-05T11:57:01.207Z,40.57
2019-04-05T11:59:29.716Z,41.40
2019-04-05T12:02:02.610Z,38.23
2019-04-05T12:04:31.195Z,41.50
2019-04-05T12:06:59.676Z,39.13
2019-04-05T12:09:28.257Z,39.63
2019-04-05T12:11:57.562Z,42.13
2019-04-05T12:14:30.429Z,43.03
2019-04-05T12:16:56.578Z,38.17
2019-04-05T12:19:25.066Z,40.50
2019-04-05T12:21:53.531Z,42.27
2019-04-05T12:24:21.994Z,40.07
2019-04-05T12:26:50.460Z,40.80
2019-04-05T12:29:19.042Z,42.17
2019-04-05T12:31:47.501Z,42.00
2019-04-05T12:34:16.037Z,38.97
2019-04-05T12:36:44.498Z,39.43
2019-04-05T12:39:13.058Z,38.97
2019-04-05T12:41:44.681Z,38.70
2019-04-05T12:44:15.066Z,39.90
2019-04-05T12:46:45.396Z,40.13
2019-04-05T12:49:13.359Z,38.77
2019-04-05T12:51:43.426Z,41.17
2019-04-05T12:54:12.461Z,38.80
2019-04-05T12:56:40.927Z,41.00
2019-04-05T12:59:09.398Z,40.33
2019-04-05T13:01:37.867Z,43.77
2019-04-05T13:04:06.386Z,42.40
2019-04-05T13:06:34.848Z,40.90
2019-04-05T13:09:06.085Z,43.60
2019-04-05T13:11:34.794Z,39.97
2019-04-05T13:14:03.276Z,42.23
2019-04-05T13:16:31.746Z,38.73
2019-04-05T13:19:00.965Z,40.47
2019-04-05T13:21:32.418Z,40.40
2019-04-05T13:24:00.204Z,41.00
2019-04-05T13:26:28.673Z,40.33
2019-04-05T13:28:57.138Z,39.50
2019-04-05T13:31:25.612Z,41.77
2019-04-05T13:33:55.203Z,41.67
2019-04-05T13:36:24.016Z,39.43
2019-04-05T13:38:55.094Z,38.90
2019-04-05T13:41:22.933Z,41.10
2019-04-05T13:43:51.468Z,38.90
2019-04-05T13:46:22.246Z,39.70
2019-04-05T13:48:50.117Z,37.13
2019-04-05T13:51:27.800Z,36.40
2019-04-05T13:53:48.733Z,39.50
2019-04-05T13:56:17.266Z,38.13
2019-04-05T13:58:46.892Z,38.60
2019-04-05T14:01:15.600Z,37.60
2019-04-05T14:03:44.087Z,38.90
2019-04-05T14:06:12.594Z,37.90
2019-04-05T14:08:41.904Z,38.13
2019-04-05T14:11:11.121Z,41.73
2019-04-05T14:13:42.864Z,38.20
2019-04-05T14:16:12.263Z,37.13
2019-04-05T14:18:40.399Z,41.53
2019-04-05T14:21:08.864Z,40.60
2019-04-05T14:23:37.350Z,40.43
2019-04-05T14:26:05.880Z,39.70
2019-04-05T14:28:34.873Z,41.40
2019-04-05T14:31:03.337Z,42.70
2019-04-05T14:33:31.822Z,40.93
2019-04-05T14:36:00.276Z,40.67
2019-04-05T14:38:31.233Z,43.00
2019-04-05T14:40:59.018Z,41.97
2019-04-05T14:43:30.265Z,41.80
2019-04-05T14:45:58.727Z,41.97
2019-04-05T14:48:28.100Z,40.20
2019-04-05T14:50:57.916Z,40.80
2019-04-05T14:53:27.417Z,66.23
2019-04-05T14:55:59.031Z,41.43
2019-04-05T14:58:26.376Z,42.27
2019-04-05T15:00:54.824Z,45.77
2019-04-05T15:03:23.283Z,41.90
2019-04-05T15:05:51.864Z,40.00
2019-04-05T15:08:21.177Z,41.87
2019-04-05T15:10:51.377Z,41.50
2019-04-05T15:13:20.088Z,39.93
2019-04-05T15:15:48.561Z,41.10
2019-04-05T15:18:19.409Z,40.50
2019-04-05T15:20:47.185Z,39.77
2019-04-05T15:23:15.653Z,41.30
2019-04-05T15:25:44.149Z,42.53
2019-04-05T15:28:12.628Z,41.93
2019-04-05T15:30:41.117Z,40.00
2019-04-05T15:33:09.593Z,40.70
2019-04-05T15:35:38.088Z,39.67
2019-04-05T15:38:06.642Z,42.37
2019-04-05T15:40:35.134Z,39.63
2019-04-05T15:43:03.594Z,39.37
2019-04-05T15:45:32.063Z,39.30
2019-04-05T15:48:00.550Z,40.13
2019-04-05T15:50:29.036Z,39.73
2019-04-05T15:52:57.513Z,39.00
2019-04-05T15:55:25.986Z,41.30
2019-04-05T15:57:54.464Z,40.23
2019-04-05T16:00:40.282Z,39.07
2019-04-05T16:03:08.822Z,40.33
2019-04-05T16:05:37.392Z,36.80
2019-04-05T16:08:05.959Z,39.47
2019-04-05T16:10:34.488Z,38.07
2019-04-05T16:13:03.051Z,37.77
2019-04-05T16:15:31.583Z,38.57
2019-04-05T16:18:00.117Z,39.70
2019-04-05T16:20:28.951Z,38.53
2019-04-05T16:22:57.470Z,38.67
2019-04-05T16:25:25.939Z,40.20
2019-04-05T16:27:54.405Z,40.97
2019-04-05T16:30:22.879Z,41.17
2019-04-05T16:32:51.658Z,40.40
2019-04-05T16:35:20.152Z,39.93
2019-04-05T16:37:48.675Z,39.17
2019-04-05T16:40:18.779Z,39.33
2019-04-05T16:42:47.276Z,40.50
2019-04-05T16:45:17.278Z,42.03
2019-04-05T16:47:45.775Z,39.13
2019-04-05T16:50:14.309Z,41.13
2019-04-05T16:52:45.060Z,41.10
2019-04-05T16:55:13.146Z,39.13
2019-04-05T16:57:41.634Z,40.47
2019-04-05T17:00:12.039Z,40.60
2019-04-05T17:02:40.520Z,38.80
2019-04-05T17:05:09.129Z,39.10
2019-04-05T17:07:37.624Z,40.50
2019-04-05T17:10:06.232Z,40.57
2019-04-05T17:12:34.744Z,40.20
2019-04-05T17:15:03.361Z,42.73
2019-04-05T17:17:31.862Z,40.40
2019-04-05T17:20:00.372Z,42.63
2019-04-05T17:22:28.888Z,41.73
2019-04-05T17:24:57.364Z,39.93
2019-04-05T17:27:25.854Z,39.70
2019-04-05T17:29:54.415Z,42.07
2019-04-05T17:32:22.966Z,42.30
2019-04-05T17:34:51.440Z,40.87
2019-04-05T17:37:19.905Z,38.60
2019-04-05T17:39:48.466Z,40.10
2019-04-05T17:42:16.932Z,39.10
2019-04-05T17:44:45.400Z,43.80
2019-04-05T17:47:13.869Z,41.57
2019-04-05T17:49:42.349Z,42.80
2019-04-05T17:52:10.853Z,45.10
2019-04-05T17:54:39.358Z,45.27
2019-04-05T17:57:07.825Z,41.63
2019-04-05T17:59:36.992Z,44.17
2019-04-05T18:02:05.498Z,44.97
2019-04-05T18:04:33.983Z,48.00
2019-04-05T18:07:02.528Z,45.03
2019-04-05T18:09:31.055Z,44.93
2019-04-05T18:11:59.526Z,45.40
2019-04-05T18:14:28.082Z,45.07
2019-04-05T18:16:56.559Z,47.33
2019-04-05T18:19:25.079Z,44.30
2019-04-05T18:21:53.570Z,45.10
2019-04-05T18:24:22.034Z,45.03
2019-04-05T18:26:50.525Z,43.47
2019-04-05T18:29:18.995Z,44.00
2019-04-05T18:31:47.456Z,44.83
2019-04-05T18:34:15.950Z,45.90
2019-04-05T18:36:44.547Z,46.23
2019-04-05T18:39:13.430Z,44.90
2019-04-05T18:41:42.025Z,45.27
2019-04-05T18:44:10.596Z,42.97
2019-04-05T18:46:51.300Z,44.07
2019-04-05T18:49:19.821Z,44.70
2019-04-05T18:51:48.392Z,44.00
2019-04-05T18:54:22.831Z,44.77
2019-04-05T18:56:51.385Z,45.20
2019-04-05T18:59:19.874Z,43.43
2019-04-05T19:01:48.371Z,43.97
2019-04-05T19:04:16.875Z,42.43
2019-04-05T19:06:45.434Z,43.43
2019-04-05T19:09:13.943Z,42.47
2019-04-05T19:11:42.426Z,43.07
2019-04-05T19:14:10.965Z,44.73
2019-04-05T19:16:39.489Z,44.23
2019-04-05T19:19:08.069Z,43.70
2019-04-05T19:21:36.555Z,44.50
2019-04-05T19:24:05.045Z,43.17
2019-04-05T19:26:33.512Z,44.10
2019-04-05T19:29:02.468Z,44.17
2019-04-05T19:49:02.318Z,45.30
2019-04-05T19:51:30.820Z,44.17
2019-04-05T19:54:01.445Z,45.53
2019-04-05T19:56:29.584Z,46.43
2019-04-05T19:58:58.141Z,46.80
2019-04-05T20:01:26.655Z,43.67
2019-04-05T20:03:55.196Z,43.47
2019-04-05T20:06:23.779Z,43.43
2019-04-05T20:08:53.225Z,44.33
2019-04-05T20:11:21.688Z,47.30
2019-04-05T20:13:50.202Z,41.80
2019-04-05T20:16:18.654Z,42.33
2019-04-05T20:18:47.210Z,44.40
2019-04-05T20:21:15.692Z,44.03
2019-04-05T20:23:47.745Z,44.40
2019-04-05T20:26:14.451Z,42.33
2019-04-05T20:28:42.964Z,42.37
2019-04-05T20:31:11.454Z,43.00
2019-04-05T20:33:40.024Z,40.77
2019-04-05T20:36:08.477Z,41.53
2019-04-05T20:38:37.067Z,44.27
2019-04-05T20:41:05.525Z,44.60
2019-04-05T20:43:34.039Z,45.17
2019-04-05T20:46:02.529Z,44.70
2019-04-05T20:48:31.124Z,44.23
2019-04-05T20:50:59.575Z,44.30
2019-04-05T20:53:28.088Z,42.20
2019-04-05T20:55:56.568Z,44.53
2019-04-05T20:58:25.045Z,42.17
2019-04-05T21:00:53.512Z,44.30
2019-04-05T21:03:22.069Z,41.50
2019-04-05T21:05:50.588Z,44.47
2019-04-05T21:08:19.100Z,44.90
2019-04-05T21:10:47.546Z,41.37
2019-04-05T21:13:16.306Z,43.57
2019-04-05T21:15:45.438Z,42.97
2019-04-05T21:18:13.926Z,42.27
2019-04-05T21:20:42.408Z,45.00
2019-04-05T21:23:10.965Z,44.23
2019-04-05T21:25:39.443Z,43.00
2019-04-05T21:28:08.381Z,44.30
2019-04-05T21:30:36.836Z,43.03
2019-04-05T21:33:05.306Z,42.50
2019-04-05T21:35:34.507Z,43.87
2019-04-05T21:38:03.031Z,44.40
2019-04-05T21:40:31.465Z,43.00
2019-04-05T21:43:00.056Z,41.50
2019-04-05T21:45:32.228Z,44.40
2019-04-05T21:48:00.746Z,45.43
2019-04-05T21:50:30.896Z,44.33
2019-04-05T21:52:59.391Z,44.37
2019-04-05T21:55:28.033Z,44.70
2019-04-05T21:57:56.599Z,43.23
2019-04-05T22:00:35.640Z,45.33
2019-04-05T22:03:04.280Z,45.40
2019-04-05T22:05:33.277Z,40.63
2019-04-05T22:08:01.744Z,43.40
2019-04-05T22:10:30.219Z,43.60
2019-04-05T22:12:58.682Z,46.33
2019-04-05T22:15:27.143Z,43.40
2019-04-05T22:17:56.107Z,46.33
2019-04-05T22:20:24.613Z,42.40
2019-04-05T22:22:53.217Z,43.87
2019-04-05T22:25:21.701Z,46.50
2019-04-05T22:27:50.163Z,45.93
2019-04-05T22:30:18.630Z,45.13
2019-04-05T22:32:47.142Z,43.93
2019-04-05T22:35:15.619Z,42.73
2019-04-05T22:37:44.079Z,44.13
2019-04-05T22:40:12.677Z,46.47
2019-04-05T22:42:41.171Z,46.03
2019-04-05T22:45:10.073Z,46.93
2019-04-05T22:47:38.548Z,42.80
2019-04-05T22:50:07.260Z,43.90
2019-04-05T22:52:35.740Z,42.50
2019-04-05T22:55:11.218Z,43.77
2019-04-05T22:57:35.561Z,46.70
2019-04-05T23:00:06.781Z,48.07
2019-04-05T23:02:35.298Z,46.03
2019-04-05T23:05:04.549Z,44.30
2019-04-05T23:07:33.031Z,42.17
2019-04-05T23:10:01.491Z,44.00
2019-04-05T23:12:29.976Z,42.63
2019-04-05T23:14:58.411Z,45.47
2019-04-05T23:17:26.971Z,45.70
2019-04-05T23:19:55.450Z,45.57
2019-04-05T23:22:24.007Z,44.40
2019-04-05T23:24:52.444Z,44.60
2019-04-05T23:27:21.019Z,45.43
2019-04-05T23:29:49.464Z,44.90
2019-04-05T23:32:17.956Z,44.37
2019-04-05T23:34:46.431Z,45.60
2019-04-05T23:37:14.879Z,44.70
2019-04-05T23:39:43.319Z,44.07
2019-04-05T23:42:11.810Z,43.67
2019-04-05T23:44:40.260Z,43.90
2019-04-05T23:47:08.742Z,45.40
2019-04-05T23:49:37.187Z,44.53
2019-04-05T23:52:05.684Z,42.80
2019-04-05T23:54:34.135Z,47.00
2019-04-05T23:57:02.627Z,43.20
2019-04-05T23:59:31.170Z,45.33
